sensor_id;sensor_type;location;lat;lon;timestamp;temperature;humidity
4677;DHT22;2352;48.180;11.478;2023-02-28T00:00:28;2.60;85.10
4677;DHT22;2352;48.180;11.478;2023-02-28T00:03:31;2.60;85.20
4677;DHT22;2352;48.180;11.478;2023-02-28T00:06:36;2.60;84.80
4677;DHT22;2352;48.180;11.478;2023-02-28T00:09:40;2.60;84.90
4677;DHT22;2352;48.180;11.478;2023-02-28T00:12:43;2.60;84.60
4677;DHT22;2352;48.180;11.478;2023-02-28T00:15:46;2.50;84.90
4677;DHT22;2352;48.180;11.478;2023-02-28T00:18:49;2.60;84.70
4677;DHT22;2352;48.180;11.478;2023-02-28T00:21:53;2.50;84.90
4677;DHT22;2352;48.180;11.478;2023-02-28T00:24:57;2.50;85.20
4677;DHT22;2352;48.180;11.478;2023-02-28T00:28:00;2.50;85.30
4677;DHT22;2352;48.180;11.478;2023-02-28T00:31:03;2.50;85.30
4677;DHT22;2352;48.180;11.478;2023-02-28T00:34:06;2.50;84.90
4677;DHT22;2352;48.180;11.478;2023-02-28T00:37:11;2.40;84.70
4677;DHT22;2352;48.180;11.478;2023-02-28T00:40:16;2.40;85.00
4677;DHT22;2352;48.180;11.478;2023-02-28T00:43:19;2.40;84.80
4677;DHT22;2352;48.180;11.478;2023-02-28T00:46:21;2.30;85.30
4677;DHT22;2352;48.180;11.478;2023-02-28T00:49:25;2.30;85.80
4677;DHT22;2352;48.180;11.478;2023-02-28T00:52:28;2.30;85.80
4677;DHT22;2352;48.180;11.478;2023-02-28T00:55:32;2.30;85.80
4677;DHT22;2352;48.180;11.478;2023-02-28T00:58:35;2.30;86.00
4677;DHT22;2352;48.180;11.478;2023-02-28T01:01:38;2.30;85.80
4677;DHT22;2352;48.180;11.478;2023-02-28T01:04:41;2.30;85.80
4677;DHT22;2352;48.180;11.478;2023-02-28T01:07:44;2.30;85.80
4677;DHT22;2352;48.180;11.478;2023-02-28T01:10:48;2.30;86.30
4677;DHT22;2352;48.180;11.478;2023-02-28T01:13:51;2.20;85.80
4677;DHT22;2352;48.180;11.478;2023-02-28T01:16:54;2.30;86.30
4677;DHT22;2352;48.180;11.478;2023-02-28T01:19:57;2.20;85.90
4677;DHT22;2352;48.180;11.478;2023-02-28T01:23:00;2.10;86.10
4677;DHT22;2352;48.180;11.478;2023-02-28T01:26:09;2.10;86.30
4677;DHT22;2352;48.180;11.478;2023-02-28T01:29:12;2.10;86.70
4677;DHT22;2352;48.180;11.478;2023-02-28T01:32:15;2.10;86.90
4677;DHT22;2352;48.180;11.478;2023-02-28T01:35:18;2.00;86.90
4677;DHT22;2352;48.180;11.478;2023-02-28T01:38:21;2.10;86.90
4677;DHT22;2352;48.180;11.478;2023-02-28T01:41:27;2.10;86.70
4677;DHT22;2352;48.180;11.478;2023-02-28T01:44:57;2.00;87.00
4677;DHT22;2352;48.180;11.478;2023-02-28T01:48:03;2.10;87.10
4677;DHT22;2352;48.180;11.478;2023-02-28T01:51:11;2.10;87.20
4677;DHT22;2352;48.180;11.478;2023-02-28T01:54:19;2.00;86.90
4677;DHT22;2352;48.180;11.478;2023-02-28T01:57:29;2.00;87.00
4677;DHT22;2352;48.180;11.478;2023-02-28T02:00:35;2.00;87.10
4677;DHT22;2352;48.180;11.478;2023-02-28T02:03:38;1.90;87.30
4677;DHT22;2352;48.180;11.478;2023-02-28T02:06:44;2.00;87.50
4677;DHT22;2352;48.180;11.478;2023-02-28T02:09:47;1.90;87.50
4677;DHT22;2352;48.180;11.478;2023-02-28T02:13:18;1.90;87.40
4677;DHT22;2352;48.180;11.478;2023-02-28T02:16:33;1.90;87.40
4677;DHT22;2352;48.180;11.478;2023-02-28T02:20:27;1.90;87.80
4677;DHT22;2352;48.180;11.478;2023-02-28T02:27:24;1.90;87.80
4677;DHT22;2352;48.180;11.478;2023-02-28T02:30:58;1.90;87.90
4677;DHT22;2352;48.180;11.478;2023-02-28T02:34:26;1.80;87.80
4677;DHT22;2352;48.180;11.478;2023-02-28T02:37:36;1.80;87.90
4677;DHT22;2352;48.180;11.478;2023-02-28T02:40:44;1.80;88.10
4677;DHT22;2352;48.180;11.478;2023-02-28T02:43:51;1.80;88.50
4677;DHT22;2352;48.180;11.478;2023-02-28T02:47:01;1.80;88.40
4677;DHT22;2352;48.180;11.478;2023-02-28T02:50:11;1.80;87.90
4677;DHT22;2352;48.180;11.478;2023-02-28T02:53:17;1.70;88.20
4677;DHT22;2352;48.180;11.478;2023-02-28T02:56:25;1.70;88.40
4677;DHT22;2352;48.180;11.478;2023-02-28T02:59:30;1.70;88.30
4677;DHT22;2352;48.180;11.478;2023-02-28T03:02:34;1.70;88.60
4677;DHT22;2352;48.180;11.478;2023-02-28T03:05:43;1.70;88.80
4677;DHT22;2352;48.180;11.478;2023-02-28T03:08:47;1.70;88.90
4677;DHT22;2352;48.180;11.478;2023-02-28T03:11:51;1.70;88.90
4677;DHT22;2352;48.180;11.478;2023-02-28T03:14:59;1.70;89.10
4677;DHT22;2352;48.180;11.478;2023-02-28T03:18:10;1.70;89.10
4677;DHT22;2352;48.180;11.478;2023-02-28T03:21:24;1.70;89.30
4677;DHT22;2352;48.180;11.478;2023-02-28T03:24:33;1.60;89.10
4677;DHT22;2352;48.180;11.478;2023-02-28T03:27:41;1.60;89.20
4677;DHT22;2352;48.180;11.478;2023-02-28T03:30:50;1.60;89.90
4677;DHT22;2352;48.180;11.478;2023-02-28T03:33:59;1.60;89.70
4677;DHT22;2352;48.180;11.478;2023-02-28T03:37:10;1.60;90.30
4677;DHT22;2352;48.180;11.478;2023-02-28T03:40:17;1.60;89.70
4677;DHT22;2352;48.180;11.478;2023-02-28T03:43:25;1.60;90.00
4677;DHT22;2352;48.180;11.478;2023-02-28T03:46:33;1.60;90.20
4677;DHT22;2352;48.180;11.478;2023-02-28T03:49:40;1.60;90.40
4677;DHT22;2352;48.180;11.478;2023-02-28T03:52:49;1.60;90.50
4677;DHT22;2352;48.180;11.478;2023-02-28T03:55:56;1.60;90.40
4677;DHT22;2352;48.180;11.478;2023-02-28T03:59:04;1.60;90.50
4677;DHT22;2352;48.180;11.478;2023-02-28T04:02:08;1.60;90.60
4677;DHT22;2352;48.180;11.478;2023-02-28T04:05:11;1.60;90.70
4677;DHT22;2352;48.180;11.478;2023-02-28T04:08:16;1.60;90.70
4677;DHT22;2352;48.180;11.478;2023-02-28T04:11:22;1.60;90.90
4677;DHT22;2352;48.180;11.478;2023-02-28T04:14:25;1.60;90.90
4677;DHT22;2352;48.180;11.478;2023-02-28T04:17:28;1.70;91.00
4677;DHT22;2352;48.180;11.478;2023-02-28T04:20:31;1.70;91.00
4677;DHT22;2352;48.180;11.478;2023-02-28T04:23:35;1.70;91.00
4677;DHT22;2352;48.180;11.478;2023-02-28T04:26:38;1.70;90.90
4677;DHT22;2352;48.180;11.478;2023-02-28T04:29:41;1.70;91.10
4677;DHT22;2352;48.180;11.478;2023-02-28T04:32:46;1.70;91.30
4677;DHT22;2352;48.180;11.478;2023-02-28T04:35:58;1.70;91.10
4677;DHT22;2352;48.180;11.478;2023-02-28T04:39:02;1.70;91.40
4677;DHT22;2352;48.180;11.478;2023-02-28T04:42:05;1.70;91.20
4677;DHT22;2352;48.180;11.478;2023-02-28T04:45:09;1.70;91.20
4677;DHT22;2352;48.180;11.478;2023-02-28T04:48:12;1.80;91.50
4677;DHT22;2352;48.180;11.478;2023-02-28T04:51:17;1.80;91.40
4677;DHT22;2352;48.180;11.478;2023-02-28T04:54:22;1.80;91.50
4677;DHT22;2352;48.180;11.478;2023-02-28T04:57:26;1.80;91.70
4677;DHT22;2352;48.180;11.478;2023-02-28T05:00:28;1.80;91.50
4677;DHT22;2352;48.180;11.478;2023-02-28T05:03:31;1.80;91.60
4677;DHT22;2352;48.180;11.478;2023-02-28T05:06:34;1.80;91.70
4677;DHT22;2352;48.180;11.478;2023-02-28T05:09:38;1.90;91.70
4677;DHT22;2352;48.180;11.478;2023-02-28T05:12:42;1.80;91.60
4677;DHT22;2352;48.180;11.478;2023-02-28T05:15:44;1.80;91.60
4677;DHT22;2352;48.180;11.478;2023-02-28T05:18:47;1.90;91.80
4677;DHT22;2352;48.180;11.478;2023-02-28T05:21:51;1.90;91.70
4677;DHT22;2352;48.180;11.478;2023-02-28T05:24:56;1.90;91.90
4677;DHT22;2352;48.180;11.478;2023-02-28T05:27:59;1.90;92.00
4677;DHT22;2352;48.180;11.478;2023-02-28T05:31:01;1.90;91.70
4677;DHT22;2352;48.180;11.478;2023-02-28T05:34:05;2.00;91.90
4677;DHT22;2352;48.180;11.478;2023-02-28T05:37:11;1.90;91.80
4677;DHT22;2352;48.180;11.478;2023-02-28T05:40:16;1.90;91.90
4677;DHT22;2352;48.180;11.478;2023-02-28T05:43:21;1.90;91.80
4677;DHT22;2352;48.180;11.478;2023-02-28T05:46:23;2.00;91.70
4677;DHT22;2352;48.180;11.478;2023-02-28T05:49:27;1.90;91.90
4677;DHT22;2352;48.180;11.478;2023-02-28T05:52:29;1.90;91.80
4677;DHT22;2352;48.180;11.478;2023-02-28T05:55:34;2.00;91.70
4677;DHT22;2352;48.180;11.478;2023-02-28T05:58:38;2.10;91.90
4677;DHT22;2352;48.180;11.478;2023-02-28T06:01:43;2.10;91.60
4677;DHT22;2352;48.180;11.478;2023-02-28T06:04:49;2.20;91.40
4677;DHT22;2352;48.180;11.478;2023-02-28T06:07:52;2.10;91.50
4677;DHT22;2352;48.180;11.478;2023-02-28T06:10:56;2.10;91.50
4677;DHT22;2352;48.180;11.478;2023-02-28T06:14:00;2.00;91.60
4677;DHT22;2352;48.180;11.478;2023-02-28T06:17:03;1.90;91.90
4677;DHT22;2352;48.180;11.478;2023-02-28T06:20:07;1.90;91.80
4677;DHT22;2352;48.180;11.478;2023-02-28T06:23:10;2.00;91.70
4677;DHT22;2352;48.180;11.478;2023-02-28T06:26:15;2.00;91.80
4677;DHT22;2352;48.180;11.478;2023-02-28T06:29:18;2.10;92.10
4677;DHT22;2352;48.180;11.478;2023-02-28T06:32:21;2.10;91.80
4677;DHT22;2352;48.180;11.478;2023-02-28T06:35:24;2.20;91.60
4677;DHT22;2352;48.180;11.478;2023-02-28T06:38:28;2.20;91.40
4677;DHT22;2352;48.180;11.478;2023-02-28T06:41:33;2.00;91.40
4677;DHT22;2352;48.180;11.478;2023-02-28T06:44:55;2.00;91.80
4677;DHT22;2352;48.180;11.478;2023-02-28T06:47:58;2.10;91.80
4677;DHT22;2352;48.180;11.478;2023-02-28T06:51:03;2.10;91.50
4677;DHT22;2352;48.180;11.478;2023-02-28T06:54:06;2.10;91.50
4677;DHT22;2352;48.180;11.478;2023-02-28T06:57:12;2.10;91.50
4677;DHT22;2352;48.180;11.478;2023-02-28T07:00:16;2.20;91.50
4677;DHT22;2352;48.180;11.478;2023-02-28T07:03:19;2.20;91.20
4677;DHT22;2352;48.180;11.478;2023-02-28T07:06:22;2.20;91.40
4677;DHT22;2352;48.180;11.478;2023-02-28T07:09:25;2.10;91.40
4677;DHT22;2352;48.180;11.478;2023-02-28T07:12:32;2.20;91.50
4677;DHT22;2352;48.180;11.478;2023-02-28T07:15:35;2.20;91.40
4677;DHT22;2352;48.180;11.478;2023-02-28T07:18:43;2.20;91.30
4677;DHT22;2352;48.180;11.478;2023-02-28T07:21:46;2.30;91.40
4677;DHT22;2352;48.180;11.478;2023-02-28T07:24:48;2.30;91.40
4677;DHT22;2352;48.180;11.478;2023-02-28T07:27:53;2.20;91.40
4677;DHT22;2352;48.180;11.478;2023-02-28T07:30:56;2.10;91.60
4677;DHT22;2352;48.180;11.478;2023-02-28T07:33:59;2.20;91.60
4677;DHT22;2352;48.180;11.478;2023-02-28T07:37:02;2.30;91.40
4677;DHT22;2352;48.180;11.478;2023-02-28T07:40:08;2.30;91.10
4677;DHT22;2352;48.180;11.478;2023-02-28T07:43:14;2.30;91.40
4677;DHT22;2352;48.180;11.478;2023-02-28T07:46:17;2.40;91.30
4677;DHT22;2352;48.180;11.478;2023-02-28T07:49:21;2.40;91.30
4677;DHT22;2352;48.180;11.478;2023-02-28T07:52:24;2.40;91.20
4677;DHT22;2352;48.180;11.478;2023-02-28T07:55:28;2.30;91.00
4677;DHT22;2352;48.180;11.478;2023-02-28T07:58:32;2.30;91.30
4677;DHT22;2352;48.180;11.478;2023-02-28T08:01:35;2.30;91.30
4677;DHT22;2352;48.180;11.478;2023-02-28T08:04:38;2.30;91.30
4677;DHT22;2352;48.180;11.478;2023-02-28T08:07:41;2.40;91.40
4677;DHT22;2352;48.180;11.478;2023-02-28T08:10:44;2.40;91.20
4677;DHT22;2352;48.180;11.478;2023-02-28T08:13:48;2.50;91.30
4677;DHT22;2352;48.180;11.478;2023-02-28T08:16:51;2.50;91.10
4677;DHT22;2352;48.180;11.478;2023-02-28T08:19:54;2.50;91.00
4677;DHT22;2352;48.180;11.478;2023-02-28T08:22:57;2.60;91.10
4677;DHT22;2352;48.180;11.478;2023-02-28T08:25:59;2.60;90.90
4677;DHT22;2352;48.180;11.478;2023-02-28T08:29:04;2.60;90.70
4677;DHT22;2352;48.180;11.478;2023-02-28T08:32:07;2.60;90.80
4677;DHT22;2352;48.180;11.478;2023-02-28T08:35:29;2.60;90.90
4677;DHT22;2352;48.180;11.478;2023-02-28T08:38:32;2.60;90.90
4677;DHT22;2352;48.180;11.478;2023-02-28T08:41:35;2.60;90.90
4677;DHT22;2352;48.180;11.478;2023-02-28T08:44:39;2.60;90.90
4677;DHT22;2352;48.180;11.478;2023-02-28T08:47:43;2.50;90.80
4677;DHT22;2352;48.180;11.478;2023-02-28T08:50:55;2.60;90.90
4677;DHT22;2352;48.180;11.478;2023-02-28T08:54:08;2.70;91.00
4677;DHT22;2352;48.180;11.478;2023-02-28T08:57:13;2.70;90.60
4677;DHT22;2352;48.180;11.478;2023-02-28T09:00:19;2.80;90.80
4677;DHT22;2352;48.180;11.478;2023-02-28T09:03:22;2.60;90.90
4677;DHT22;2352;48.180;11.478;2023-02-28T09:06:26;2.60;90.60
4677;DHT22;2352;48.180;11.478;2023-02-28T09:09:30;2.60;90.90
4677;DHT22;2352;48.180;11.478;2023-02-28T09:12:34;2.60;90.90
4677;DHT22;2352;48.180;11.478;2023-02-28T09:15:39;2.70;90.90
4677;DHT22;2352;48.180;11.478;2023-02-28T09:18:42;2.80;90.80
4677;DHT22;2352;48.180;11.478;2023-02-28T09:21:45;2.80;90.50
4677;DHT22;2352;48.180;11.478;2023-02-28T09:24:48;2.90;90.80
4677;DHT22;2352;48.180;11.478;2023-02-28T09:27:51;2.90;90.20
4677;DHT22;2352;48.180;11.478;2023-02-28T09:30:56;2.90;90.50
4677;DHT22;2352;48.180;11.478;2023-02-28T09:34:00;3.00;90.60
4677;DHT22;2352;48.180;11.478;2023-02-28T09:37:04;2.90;90.60
4677;DHT22;2352;48.180;11.478;2023-02-28T09:40:09;2.80;90.20
4677;DHT22;2352;48.180;11.478;2023-02-28T09:43:14;2.90;90.60
4677;DHT22;2352;48.180;11.478;2023-02-28T09:46:31;2.90;90.40
4677;DHT22;2352;48.180;11.478;2023-02-28T09:49:39;3.00;90.70
4677;DHT22;2352;48.180;11.478;2023-02-28T09:52:45;3.00;90.40
4677;DHT22;2352;48.180;11.478;2023-02-28T09:55:52;3.00;90.90
4677;DHT22;2352;48.180;11.478;2023-02-28T09:59:00;3.10;90.60
4677;DHT22;2352;48.180;11.478;2023-02-28T10:02:17;3.20;90.20
4677;DHT22;2352;48.180;11.478;2023-02-28T10:05:24;3.00;90.00
4677;DHT22;2352;48.180;11.478;2023-02-28T10:08:31;2.90;90.30
4677;DHT22;2352;48.180;11.478;2023-02-28T10:11:37;3.10;90.50
4677;DHT22;2352;48.180;11.478;2023-02-28T10:14:45;3.20;90.20
4677;DHT22;2352;48.180;11.478;2023-02-28T10:17:54;3.30;89.90
4677;DHT22;2352;48.180;11.478;2023-02-28T10:21:17;3.40;90.00
4677;DHT22;2352;48.180;11.478;2023-02-28T10:24:28;3.50;89.70
4677;DHT22;2352;48.180;11.478;2023-02-28T10:27:32;3.60;90.00
4677;DHT22;2352;48.180;11.478;2023-02-28T10:30:37;3.60;89.90
4677;DHT22;2352;48.180;11.478;2023-02-28T10:33:43;3.60;88.20
4677;DHT22;2352;48.180;11.478;2023-02-28T10:36:48;3.60;89.10
4677;DHT22;2352;48.180;11.478;2023-02-28T10:39:52;3.70;88.80
4677;DHT22;2352;48.180;11.478;2023-02-28T10:42:56;3.90;88.90
4677;DHT22;2352;48.180;11.478;2023-02-28T10:46:02;4.10;88.80
4677;DHT22;2352;48.180;11.478;2023-02-28T10:49:14;4.20;87.90
4677;DHT22;2352;48.180;11.478;2023-02-28T10:52:35;4.50;90.70
4677;DHT22;2352;48.180;11.478;2023-02-28T10:55:39;4.60;87.80
4677;DHT22;2352;48.180;11.478;2023-02-28T10:58:48;4.70;86.60
4677;DHT22;2352;48.180;11.478;2023-02-28T11:01:51;4.90;85.60
4677;DHT22;2352;48.180;11.478;2023-02-28T11:04:56;5.00;85.00
4677;DHT22;2352;48.180;11.478;2023-02-28T11:08:05;4.80;82.60
4677;DHT22;2352;48.180;11.478;2023-02-28T11:11:09;4.60;85.30
4677;DHT22;2352;48.180;11.478;2023-02-28T11:14:19;4.70;85.40
4677;DHT22;2352;48.180;11.478;2023-02-28T11:17:24;4.70;85.20
4677;DHT22;2352;48.180;11.478;2023-02-28T11:20:32;4.70;85.80
4677;DHT22;2352;48.180;11.478;2023-02-28T11:23:37;4.90;85.40
4677;DHT22;2352;48.180;11.478;2023-02-28T11:26:44;5.00;84.60
4677;DHT22;2352;48.180;11.478;2023-02-28T11:29:48;5.00;85.20
4677;DHT22;2352;48.180;11.478;2023-02-28T11:32:51;5.20;85.60
4677;DHT22;2352;48.180;11.478;2023-02-28T11:35:58;5.30;84.90
4677;DHT22;2352;48.180;11.478;2023-02-28T11:39:09;5.50;84.60
4677;DHT22;2352;48.180;11.478;2023-02-28T11:45:49;5.70;82.90
4677;DHT22;2352;48.180;11.478;2023-02-28T11:49:03;5.80;82.50
4677;DHT22;2352;48.180;11.478;2023-02-28T11:52:19;5.80;82.40
4677;DHT22;2352;48.180;11.478;2023-02-28T11:55:25;5.90;82.20
4677;DHT22;2352;48.180;11.478;2023-02-28T11:58:37;5.90;81.40
4677;DHT22;2352;48.180;11.478;2023-02-28T12:01:57;5.90;81.70
4677;DHT22;2352;48.180;11.478;2023-02-28T12:05:24;5.90;81.00
4677;DHT22;2352;48.180;11.478;2023-02-28T12:08:43;5.80;82.10
4677;DHT22;2352;48.180;11.478;2023-02-28T12:11:51;5.90;82.10
4677;DHT22;2352;48.180;11.478;2023-02-28T12:15:28;6.00;81.90
4677;DHT22;2352;48.180;11.478;2023-02-28T12:18:48;6.20;80.40
4677;DHT22;2352;48.180;11.478;2023-02-28T12:22:12;6.30;82.30
4677;DHT22;2352;48.180;11.478;2023-02-28T12:25:39;6.60;82.10
4677;DHT22;2352;48.180;11.478;2023-02-28T12:28:50;6.70;80.10
4677;DHT22;2352;48.180;11.478;2023-02-28T12:32:01;6.80;80.90
4677;DHT22;2352;48.180;11.478;2023-02-28T12:35:12;6.90;80.30
4677;DHT22;2352;48.180;11.478;2023-02-28T12:38:18;7.20;79.40
4677;DHT22;2352;48.180;11.478;2023-02-28T12:41:28;7.50;79.80
4677;DHT22;2352;48.180;11.478;2023-02-28T12:44:35;7.90;78.50
4677;DHT22;2352;48.180;11.478;2023-02-28T12:47:43;8.10;77.60
4677;DHT22;2352;48.180;11.478;2023-02-28T12:50:48;8.50;75.40
4677;DHT22;2352;48.180;11.478;2023-02-28T12:53:59;8.70;76.20
4677;DHT22;2352;48.180;11.478;2023-02-28T12:57:11;9.10;75.30
4677;DHT22;2352;48.180;11.478;2023-02-28T13:00:17;9.20;74.00
4677;DHT22;2352;48.180;11.478;2023-02-28T13:03:33;9.60;72.10
4677;DHT22;2352;48.180;11.478;2023-02-28T13:06:50;10.00;70.80
4677;DHT22;2352;48.180;11.478;2023-02-28T13:09:57;10.30;69.30
4677;DHT22;2352;48.180;11.478;2023-02-28T13:13:03;10.30;67.70
4677;DHT22;2352;48.180;11.478;2023-02-28T13:16:08;10.60;68.60
4677;DHT22;2352;48.180;11.478;2023-02-28T13:19:11;10.80;67.30
4677;DHT22;2352;48.180;11.478;2023-02-28T13:22:20;10.90;65.80
4677;DHT22;2352;48.180;11.478;2023-02-28T13:25:54;11.10;66.80
4677;DHT22;2352;48.180;11.478;2023-02-28T13:29:00;11.30;64.20
4677;DHT22;2352;48.180;11.478;2023-02-28T13:35:43;11.50;62.30
4677;DHT22;2352;48.180;11.478;2023-02-28T13:38:51;11.60;64.20
4677;DHT22;2352;48.180;11.478;2023-02-28T13:41:54;11.70;62.90
4677;DHT22;2352;48.180;11.478;2023-02-28T13:45:27;11.90;60.50
4677;DHT22;2352;48.180;11.478;2023-02-28T13:48:31;12.00;61.70
4677;DHT22;2352;48.180;11.478;2023-02-28T13:51:43;12.10;61.80
4677;DHT22;2352;48.180;11.478;2023-02-28T13:55:06;12.00;59.40
4677;DHT22;2352;48.180;11.478;2023-02-28T13:58:31;11.80;59.70
4677;DHT22;2352;48.180;11.478;2023-02-28T14:01:51;11.60;60.80
4677;DHT22;2352;48.180;11.478;2023-02-28T14:05:01;11.40;58.60
4677;DHT22;2352;48.180;11.478;2023-02-28T14:08:06;11.20;60.10
4677;DHT22;2352;48.180;11.478;2023-02-28T14:11:29;11.00;60.80
4677;DHT22;2352;48.180;11.478;2023-02-28T14:14:54;10.90;60.90
4677;DHT22;2352;48.180;11.478;2023-02-28T14:18:03;10.80;60.90
4677;DHT22;2352;48.180;11.478;2023-02-28T14:21:14;10.70;62.60
4677;DHT22;2352;48.180;11.478;2023-02-28T14:24:46;10.60;62.40
4677;DHT22;2352;48.180;11.478;2023-02-28T14:27:58;10.50;63.20
4677;DHT22;2352;48.180;11.478;2023-02-28T14:31:07;10.50;61.00
4677;DHT22;2352;48.180;11.478;2023-02-28T14:34:25;10.30;61.50
4677;DHT22;2352;48.180;11.478;2023-02-28T14:37:30;10.10;63.10
4677;DHT22;2352;48.180;11.478;2023-02-28T14:40:37;10.00;62.50
4677;DHT22;2352;48.180;11.478;2023-02-28T14:43:49;9.90;63.50
4677;DHT22;2352;48.180;11.478;2023-02-28T14:46:54;9.90;65.10
4677;DHT22;2352;48.180;11.478;2023-02-28T14:50:00;10.00;63.60
4677;DHT22;2352;48.180;11.478;2023-02-28T14:53:10;10.00;64.80
4677;DHT22;2352;48.180;11.478;2023-02-28T14:56:22;10.10;63.60
4677;DHT22;2352;48.180;11.478;2023-02-28T14:59:28;10.10;66.50
4677;DHT22;2352;48.180;11.478;2023-02-28T15:02:34;10.20;63.90
4677;DHT22;2352;48.180;11.478;2023-02-28T15:05:39;10.20;65.00
4677;DHT22;2352;48.180;11.478;2023-02-28T15:08:42;10.40;65.00
4677;DHT22;2352;48.180;11.478;2023-02-28T15:11:47;10.50;64.60
4677;DHT22;2352;48.180;11.478;2023-02-28T15:14:51;10.60;63.90
4677;DHT22;2352;48.180;11.478;2023-02-28T15:17:56;10.70;63.30
4677;DHT22;2352;48.180;11.478;2023-02-28T15:21:03;10.80;63.40
4677;DHT22;2352;48.180;11.478;2023-02-28T15:24:13;10.90;63.40
4677;DHT22;2352;48.180;11.478;2023-02-28T15:27:26;10.90;62.80
4677;DHT22;2352;48.180;11.478;2023-02-28T15:30:31;11.00;61.30
4677;DHT22;2352;48.180;11.478;2023-02-28T15:33:34;11.00;62.50
4677;DHT22;2352;48.180;11.478;2023-02-28T15:36:39;11.00;62.40
4677;DHT22;2352;48.180;11.478;2023-02-28T15:39:42;10.90;61.90
4677;DHT22;2352;48.180;11.478;2023-02-28T15:42:59;10.90;61.90
4677;DHT22;2352;48.180;11.478;2023-02-28T15:46:04;10.90;62.50
4677;DHT22;2352;48.180;11.478;2023-02-28T15:49:16;10.80;61.90
4677;DHT22;2352;48.180;11.478;2023-02-28T15:52:24;10.70;62.40
4677;DHT22;2352;48.180;11.478;2023-02-28T15:55:29;10.60;63.40
4677;DHT22;2352;48.180;11.478;2023-02-28T15:58:33;10.50;63.20
4677;DHT22;2352;48.180;11.478;2023-02-28T16:01:38;10.30;62.60
4677;DHT22;2352;48.180;11.478;2023-02-28T16:05:21;9.90;63.30
4677;DHT22;2352;48.180;11.478;2023-02-28T16:08:30;9.80;62.80
4677;DHT22;2352;48.180;11.478;2023-02-28T16:11:36;9.70;63.50
4677;DHT22;2352;48.180;11.478;2023-02-28T16:14:40;9.50;64.00
4677;DHT22;2352;48.180;11.478;2023-02-28T16:17:44;9.40;64.70
4677;DHT22;2352;48.180;11.478;2023-02-28T16:20:48;9.30;64.90
4677;DHT22;2352;48.180;11.478;2023-02-28T16:23:52;9.00;66.70
4677;DHT22;2352;48.180;11.478;2023-02-28T16:26:56;9.00;66.10
4677;DHT22;2352;48.180;11.478;2023-02-28T16:30:00;8.90;66.50
4677;DHT22;2352;48.180;11.478;2023-02-28T16:33:03;8.90;67.00
4677;DHT22;2352;48.180;11.478;2023-02-28T16:36:06;8.70;66.70
4677;DHT22;2352;48.180;11.478;2023-02-28T16:39:13;8.60;66.40
4677;DHT22;2352;48.180;11.478;2023-02-28T16:42:20;8.50;66.80
4677;DHT22;2352;48.180;11.478;2023-02-28T16:45:28;8.30;68.10
4677;DHT22;2352;48.180;11.478;2023-02-28T16:48:31;8.30;68.30
4677;DHT22;2352;48.180;11.478;2023-02-28T16:51:34;8.20;69.10
4677;DHT22;2352;48.180;11.478;2023-02-28T16:54:39;8.10;69.40
4677;DHT22;2352;48.180;11.478;2023-02-28T16:57:43;8.10;69.20
4677;DHT22;2352;48.180;11.478;2023-02-28T17:00:47;8.00;69.70
4677;DHT22;2352;48.180;11.478;2023-02-28T17:03:50;7.90;70.00
4677;DHT22;2352;48.180;11.478;2023-02-28T17:06:53;7.80;70.10
4677;DHT22;2352;48.180;11.478;2023-02-28T17:09:58;7.70;70.30
4677;DHT22;2352;48.180;11.478;2023-02-28T17:13:02;7.70;70.30
4677;DHT22;2352;48.180;11.478;2023-02-28T17:16:20;7.60;70.50
4677;DHT22;2352;48.180;11.478;2023-02-28T17:19:25;7.50;70.70
4677;DHT22;2352;48.180;11.478;2023-02-28T17:22:27;7.40;71.00
4677;DHT22;2352;48.180;11.478;2023-02-28T17:25:32;7.30;71.40
4677;DHT22;2352;48.180;11.478;2023-02-28T17:28:35;7.30;71.80
4677;DHT22;2352;48.180;11.478;2023-02-28T17:31:40;7.20;72.00
4677;DHT22;2352;48.180;11.478;2023-02-28T17:34:44;7.10;72.80
4677;DHT22;2352;48.180;11.478;2023-02-28T17:37:47;7.00;73.00
4677;DHT22;2352;48.180;11.478;2023-02-28T17:40:53;7.00;73.30
4677;DHT22;2352;48.180;11.478;2023-02-28T17:43:58;6.90;73.80
4677;DHT22;2352;48.180;11.478;2023-02-28T17:47:01;6.90;74.20
4677;DHT22;2352;48.180;11.478;2023-02-28T17:50:05;6.90;75.00
4677;DHT22;2352;48.180;11.478;2023-02-28T17:53:08;6.80;75.40
4677;DHT22;2352;48.180;11.478;2023-02-28T17:56:19;6.80;75.00
4677;DHT22;2352;48.180;11.478;2023-02-28T17:59:23;6.80;76.00
4677;DHT22;2352;48.180;11.478;2023-02-28T18:02:25;6.80;76.10
4677;DHT22;2352;48.180;11.478;2023-02-28T18:05:29;6.80;76.00
4677;DHT22;2352;48.180;11.478;2023-02-28T18:08:34;6.80;76.60
4677;DHT22;2352;48.180;11.478;2023-02-28T18:11:38;6.80;83.00
4677;DHT22;2352;48.180;11.478;2023-02-28T18:14:45;6.80;77.90
4677;DHT22;2352;48.180;11.478;2023-02-28T18:17:49;6.80;77.90
4677;DHT22;2352;48.180;11.478;2023-02-28T18:20:52;6.80;77.60
4677;DHT22;2352;48.180;11.478;2023-02-28T18:23:56;6.80;78.50
4677;DHT22;2352;48.180;11.478;2023-02-28T18:27:00;6.80;78.30
4677;DHT22;2352;48.180;11.478;2023-02-28T18:30:04;6.70;78.00
4677;DHT22;2352;48.180;11.478;2023-02-28T18:33:07;6.70;78.10
4677;DHT22;2352;48.180;11.478;2023-02-28T18:36:10;6.70;78.40
4677;DHT22;2352;48.180;11.478;2023-02-28T18:39:14;6.70;78.60
4677;DHT22;2352;48.180;11.478;2023-02-28T18:42:18;6.70;78.30
4677;DHT22;2352;48.180;11.478;2023-02-28T18:45:21;6.70;78.60
4677;DHT22;2352;48.180;11.478;2023-02-28T18:48:24;6.70;78.80
4677;DHT22;2352;48.180;11.478;2023-02-28T18:51:27;6.70;79.10
4677;DHT22;2352;48.180;11.478;2023-02-28T18:54:31;6.60;78.40
4677;DHT22;2352;48.180;11.478;2023-02-28T18:57:35;6.60;78.80
4677;DHT22;2352;48.180;11.478;2023-02-28T19:00:38;6.60;78.90
4677;DHT22;2352;48.180;11.478;2023-02-28T19:03:41;6.60;79.00
4677;DHT22;2352;48.180;11.478;2023-02-28T19:06:44;6.60;79.10
4677;DHT22;2352;48.180;11.478;2023-02-28T19:09:47;6.70;78.70
4677;DHT22;2352;48.180;11.478;2023-02-28T19:12:51;6.60;79.40
4677;DHT22;2352;48.180;11.478;2023-02-28T19:16:00;6.60;79.60
4677;DHT22;2352;48.180;11.478;2023-02-28T19:19:04;6.50;80.10
4677;DHT22;2352;48.180;11.478;2023-02-28T19:22:07;6.60;79.90
4677;DHT22;2352;48.180;11.478;2023-02-28T19:25:10;6.50;80.10
4677;DHT22;2352;48.180;11.478;2023-02-28T19:28:14;6.50;79.90
4677;DHT22;2352;48.180;11.478;2023-02-28T19:31:18;6.50;80.30
4677;DHT22;2352;48.180;11.478;2023-02-28T19:34:22;6.50;80.80
4677;DHT22;2352;48.180;11.478;2023-02-28T19:37:25;6.50;80.20
4677;DHT22;2352;48.180;11.478;2023-02-28T19:40:27;6.40;80.20
4677;DHT22;2352;48.180;11.478;2023-02-28T19:43:32;6.40;80.70
4677;DHT22;2352;48.180;11.478;2023-02-28T19:46:35;6.40;81.00
4677;DHT22;2352;48.180;11.478;2023-02-28T19:49:38;6.40;80.50
4677;DHT22;2352;48.180;11.478;2023-02-28T19:52:41;6.20;81.00
4677;DHT22;2352;48.180;11.478;2023-02-28T19:55:45;6.30;81.70
4677;DHT22;2352;48.180;11.478;2023-02-28T19:58:50;6.30;81.60
4677;DHT22;2352;48.180;11.478;2023-02-28T20:01:53;6.40;81.30
4677;DHT22;2352;48.180;11.478;2023-02-28T20:04:57;6.40;81.50
4677;DHT22;2352;48.180;11.478;2023-02-28T20:08:02;6.40;82.00
4677;DHT22;2352;48.180;11.478;2023-02-28T20:11:06;6.40;81.70
4677;DHT22;2352;48.180;11.478;2023-02-28T20:14:11;6.20;81.40
4677;DHT22;2352;48.180;11.478;2023-02-28T20:17:15;6.10;81.90
4677;DHT22;2352;48.180;11.478;2023-02-28T20:20:18;6.20;81.80
4677;DHT22;2352;48.180;11.478;2023-02-28T20:23:21;6.00;82.20
4677;DHT22;2352;48.180;11.478;2023-02-28T20:26:26;6.00;82.90